sensor_id;sensor_type;location;lat;lon;timestamp;pressure;altitude;pressure_sealevel;temperature;humidity
21504;BME280;10913;51.992;9.228;2022-07-22T00:01:19;100532.06;;;20.70;100.00
21504;BME280;10913;51.992;9.228;2022-07-22T00:03:45;100531.22;;;20.69;100.00
21504;BME280;10913;51.992;9.228;2022-07-22T00:06:10;100532.16;;;20.68;100.00
21504;BME280;10913;51.992;9.228;2022-07-22T00:08:36;100541.94;;;20.69;100.00
21504;BME280;10913;51.992;9.228;2022-07-22T00:11:01;100534.69;;;20.71;100.00
21504;BME280;10913;51.992;9.228;2022-07-22T00:13:26;100531.94;;;20.73;100.00
21504;BME280;10913;51.992;9.228;2022-07-22T00:15:52;100529.19;;;20.74;100.00
21504;BME280;10913;51.992;9.228;2022-07-22T00:18:17;100530.00;;;20.76;100.00
21504;BME280;10913;51.992;9.228;2022-07-22T00:20:43;100521.94;;;20.76;100.00
21504;BME280;10913;51.992;9.228;2022-07-22T00:23:08;100532.69;;;20.76;100.00
21504;BME280;10913;51.992;9.228;2022-07-22T00:25:34;100534.56;;;20.74;100.00
21504;BME280;10913;51.992;9.228;2022-07-22T00:27:59;100526.56;;;20.73;100.00
21504;BME280;10913;51.992;9.228;2022-07-22T00:30:25;100531.94;;;20.73;100.00
21504;BME280;10913;51.992;9.228;2022-07-22T00:32:50;100528.38;;;20.72;100.00
21504;BME280;10913;51.992;9.228;2022-07-22T00:35:16;100526.56;;;20.73;100.00
21504;BME280;10913;51.992;9.228;2022-07-22T00:37:41;100527.44;;;20.73;100.00
21504;BME280;10913;51.992;9.228;2022-07-22T00:40:07;100520.47;;;20.69;100.00
21504;BME280;10913;51.992;9.228;2022-07-22T00:42:33;100527.59;;;20.70;100.00
21504;BME280;10913;51.992;9.228;2022-07-22T00:44:59;100515.03;;;20.71;100.00
21504;BME280;10913;51.992;9.228;2022-07-22T00:47:24;100523.97;;;20.71;100.00
21504;BME280;10913;51.992;9.228;2022-07-22T00:49:50;100522.34;;;20.67;100.00
21504;BME280;10913;51.992;9.228;2022-07-22T00:52:15;100520.66;;;20.64;100.00
21504;BME280;10913;51.992;9.228;2022-07-22T00:54:41;100519.91;;;20.61;100.00
21504;BME280;10913;51.992;9.228;2022-07-22T00:57:06;100515.66;;;20.57;100.00
21504;BME280;10913;51.992;9.228;2022-07-22T00:59:32;100518.47;;;20.54;100.00
21504;BME280;10913;51.992;9.228;2022-07-22T01:01:57;100513.28;;;20.49;100.00
21504;BME280;10913;51.992;9.228;2022-07-22T01:04:23;100523.28;;;20.46;100.00
21504;BME280;10913;51.992;9.228;2022-07-22T01:06:48;100516.19;;;20.45;100.00
21504;BME280;10913;51.992;9.228;2022-07-22T01:09:14;100525.03;;;20.47;100.00
21504;BME280;10913;51.992;9.228;2022-07-22T01:11:40;100517.13;;;20.44;100.00
21504;BME280;10913;51.992;9.228;2022-07-22T01:14:06;100519.88;;;20.42;100.00
21504;BME280;10913;51.992;9.228;2022-07-22T01:16:32;100519.94;;;20.41;100.00
21504;BME280;10913;51.992;9.228;2022-07-22T01:18:57;100528.03;;;20.39;100.00
21504;BME280;10913;51.992;9.228;2022-07-22T01:21:23;100522.81;;;20.36;100.00
21504;BME280;10913;51.992;9.228;2022-07-22T01:23:49;100523.13;;;20.28;100.00
21504;BME280;10913;51.992;9.228;2022-07-22T01:26:15;100527.75;;;20.25;100.00
21504;BME280;10913;51.992;9.228;2022-07-22T01:28:41;100531.44;;;20.22;100.00
21504;BME280;10913;51.992;9.228;2022-07-22T01:31:07;100530.56;;;20.22;100.00
21504;BME280;10913;51.992;9.228;2022-07-22T01:33:32;100526.34;;;20.16;100.00
21504;BME280;10913;51.992;9.228;2022-07-22T01:35:58;100525.66;;;20.11;100.00
21504;BME280;10913;51.992;9.228;2022-07-22T01:38:24;100518.59;;;20.09;100.00
21504;BME280;10913;51.992;9.228;2022-07-22T01:40:49;100527.41;;;20.12;100.00
21504;BME280;10913;51.992;9.228;2022-07-22T01:43:15;100531.72;;;20.16;100.00
21504;BME280;10913;51.992;9.228;2022-07-22T01:45:44;100528.88;;;20.19;100.00
21504;BME280;10913;51.992;9.228;2022-07-22T01:48:10;100538.53;;;20.23;100.00
21504;BME280;10913;51.992;9.228;2022-07-22T01:50:36;100534.78;;;20.27;100.00
21504;BME280;10913;51.992;9.228;2022-07-22T01:53:02;100536.53;;;20.28;100.00
21504;BME280;10913;51.992;9.228;2022-07-22T01:55:27;100542.78;;;20.29;100.00
21504;BME280;10913;51.992;9.228;2022-07-22T01:57:53;100545.41;;;20.30;100.00
21504;BME280;10913;51.992;9.228;2022-07-22T02:00:18;100544.47;;;20.32;100.00
21504;BME280;10913;51.992;9.228;2022-07-22T02:02:44;100550.75;;;20.30;100.00
21504;BME280;10913;51.992;9.228;2022-07-22T02:05:10;100558.88;;;20.29;100.00
21504;BME280;10913;51.992;9.228;2022-07-22T02:07:35;100555.38;;;20.27;100.00
21504;BME280;10913;51.992;9.228;2022-07-22T02:10:01;100559.00;;;20.26;100.00
21504;BME280;10913;51.992;9.228;2022-07-22T02:12:26;100562.50;;;20.28;100.00
21504;BME280;10913;51.992;9.228;2022-07-22T02:14:51;100558.94;;;20.27;100.00
21504;BME280;10913;51.992;9.228;2022-07-22T02:17:17;100567.13;;;20.24;100.00
21504;BME280;10913;51.992;9.228;2022-07-22T02:19:43;100568.00;;;20.25;100.00
21504;BME280;10913;51.992;9.228;2022-07-22T02:22:08;100573.28;;;20.26;100.00
21504;BME280;10913;51.992;9.228;2022-07-22T02:24:34;100570.50;;;20.29;100.00
21504;BME280;10913;51.992;9.228;2022-07-22T02:26:59;100577.03;;;20.22;100.00
21504;BME280;10913;51.992;9.228;2022-07-22T02:29:25;100573.69;;;20.17;100.00
21504;BME280;10913;51.992;9.228;2022-07-22T02:31:51;100571.06;;;20.16;100.00
21504;BME280;10913;51.992;9.228;2022-07-22T02:34:16;100579.25;;;20.13;100.00
21504;BME280;10913;51.992;9.228;2022-07-22T02:36:42;100580.38;;;20.07;100.00
21504;BME280;10913;51.992;9.228;2022-07-22T02:39:07;100573.38;;;20.03;100.00
21504;BME280;10913;51.992;9.228;2022-07-22T02:41:33;100579.00;;;19.97;100.00
21504;BME280;10913;51.992;9.228;2022-07-22T02:43:58;100580.00;;;19.94;100.00
21504;BME280;10913;51.992;9.228;2022-07-22T02:46:25;100591.72;;;19.92;100.00
21504;BME280;10913;51.992;9.228;2022-07-22T02:48:50;100588.34;;;19.87;100.00
21504;BME280;10913;51.992;9.228;2022-07-22T02:51:16;100587.47;;;19.86;100.00
21504;BME280;10913;51.992;9.228;2022-07-22T02:53:42;100592.03;;;19.84;100.00
21504;BME280;10913;51.992;9.228;2022-07-22T02:56:07;100593.84;;;19.84;100.00
21504;BME280;10913;51.992;9.228;2022-07-22T02:58:33;100596.56;;;19.82;100.00
21504;BME280;10913;51.992;9.228;2022-07-22T03:00:58;100601.13;;;19.80;100.00
21504;BME280;10913;51.992;9.228;2022-07-22T03:03:24;100596.78;;;19.78;100.00
21504;BME280;10913;51.992;9.228;2022-07-22T03:05:49;100601.38;;;19.74;100.00
21504;BME280;10913;51.992;9.228;2022-07-22T03:08:15;100601.44;;;19.73;100.00
21504;BME280;10913;51.992;9.228;2022-07-22T03:10:41;100610.41;;;19.72;100.00
21504;BME280;10913;51.992;9.228;2022-07-22T03:13:06;100611.41;;;19.69;100.00
21504;BME280;10913;51.992;9.228;2022-07-22T03:15:32;100604.34;;;19.67;100.00
21504;BME280;10913;51.992;9.228;2022-07-22T03:17:57;100610.66;;;19.66;100.00
21504;BME280;10913;51.992;9.228;2022-07-22T03:20:22;100609.00;;;19.61;100.00
21504;BME280;10913;51.992;9.228;2022-07-22T03:22:48;100609.13;;;19.58;100.00
21504;BME280;10913;51.992;9.228;2022-07-22T03:25:13;100607.53;;;19.54;100.00
21504;BME280;10913;51.992;9.228;2022-07-22T03:27:39;100615.63;;;19.53;100.00
21504;BME280;10913;51.992;9.228;2022-07-22T03:30:05;100609.38;;;19.52;100.00
21504;BME280;10913;51.992;9.228;2022-07-22T03:32:31;100607.63;;;19.51;100.00
21504;BME280;10913;51.992;9.228;2022-07-22T03:34:56;100613.94;;;19.50;100.00
21504;BME280;10913;51.992;9.228;2022-07-22T03:37:21;100622.88;;;19.49;100.00
21504;BME280;10913;51.992;9.228;2022-07-22T03:39:47;100618.44;;;19.48;100.00
21504;BME280;10913;51.992;9.228;2022-07-22T03:42:13;100609.59;;;19.46;100.00
21504;BME280;10913;51.992;9.228;2022-07-22T03:44:38;100618.56;;;19.45;100.00
21504;BME280;10913;51.992;9.228;2022-07-22T03:47:03;100617.69;;;19.45;100.00
21504;BME280;10913;51.992;9.228;2022-07-22T03:49:30;100623.09;;;19.43;100.00
21504;BME280;10913;51.992;9.228;2022-07-22T03:51:56;100624.97;;;19.41;100.00
21504;BME280;10913;51.992;9.228;2022-07-22T03:54:21;100627.63;;;19.41;100.00
21504;BME280;10913;51.992;9.228;2022-07-22T03:56:46;100624.13;;;19.39;100.00
21504;BME280;10913;51.992;9.228;2022-07-22T03:59:12;100623.34;;;19.37;100.00
21504;BME280;10913;51.992;9.228;2022-07-22T04:01:37;100634.06;;;19.37;100.00
21504;BME280;10913;51.992;9.228;2022-07-22T04:04:04;100622.47;;;19.37;100.00
21504;BME280;10913;51.992;9.228;2022-07-22T04:06:29;100625.09;;;19.38;100.00
21504;BME280;10913;51.992;9.228;2022-07-22T04:08:55;100635.88;;;19.37;100.00
21504;BME280;10913;51.992;9.228;2022-07-22T04:11:20;100632.31;;;19.36;100.00
21504;BME280;10913;51.992;9.228;2022-07-22T04:13:46;100633.13;;;19.38;100.00
21504;BME280;10913;51.992;9.228;2022-07-22T04:16:11;100636.75;;;19.37;100.00
21504;BME280;10913;51.992;9.228;2022-07-22T04:18:37;100629.63;;;19.36;100.00
21504;BME280;10913;51.992;9.228;2022-07-22T04:21:02;100641.28;;;19.35;100.00
21504;BME280;10913;51.992;9.228;2022-07-22T04:23:28;100641.28;;;19.35;100.00
21504;BME280;10913;51.992;9.228;2022-07-22T04:25:54;100639.47;;;19.36;100.00
21504;BME280;10913;51.992;9.228;2022-07-22T04:28:19;100643.97;;;19.35;100.00
21504;BME280;10913;51.992;9.228;2022-07-22T04:30:44;100645.72;;;19.36;100.00
21504;BME280;10913;51.992;9.228;2022-07-22T04:33:10;100647.53;;;19.36;100.00
21504;BME280;10913;51.992;9.228;2022-07-22T04:35:35;100643.03;;;19.36;100.00
21504;BME280;10913;51.992;9.228;2022-07-22T04:38:01;100640.34;;;19.36;100.00
21504;BME280;10913;51.992;9.228;2022-07-22T04:40:26;100646.59;;;19.37;100.00
21504;BME280;10913;51.992;9.228;2022-07-22T04:42:52;100644.84;;;19.36;100.00
21504;BME280;10913;51.992;9.228;2022-07-22T04:45:17;100646.66;;;19.35;100.00
21504;BME280;10913;51.992;9.228;2022-07-22T04:47:46;100646.69;;;19.34;100.00
21504;BME280;10913;51.992;9.228;2022-07-22T04:50:11;100653.03;;;19.31;100.00
21504;BME280;10913;51.992;9.228;2022-07-22T04:52:36;100645.88;;;19.32;100.00
21504;BME280;10913;51.992;9.228;2022-07-22T04:55:02;100647.69;;;19.31;100.00
21504;BME280;10913;51.992;9.228;2022-07-22T04:57:28;100651.28;;;19.30;99.94
21504;BME280;10913;51.992;9.228;2022-07-22T04:59:53;100653.03;;;19.31;99.86
21504;BME280;10913;51.992;9.228;2022-07-22T05:02:19;100656.66;;;19.30;99.57
21504;BME280;10913;51.992;9.228;2022-07-22T05:04:45;100655.78;;;19.30;99.73
21504;BME280;10913;51.992;9.228;2022-07-22T05:07:10;100658.44;;;19.30;100.00
21504;BME280;10913;51.992;9.228;2022-07-22T05:09:36;100659.38;;;19.28;100.00
21504;BME280;10913;51.992;9.228;2022-07-22T05:12:02;100663.88;;;19.28;100.00
21504;BME280;10913;51.992;9.228;2022-07-22T05:14:27;100654.94;;;19.27;100.00
21504;BME280;10913;51.992;9.228;2022-07-22T05:16:52;100663.97;;;19.25;100.00
21504;BME280;10913;51.992;9.228;2022-07-22T05:19:18;100657.09;;;19.18;99.74
21504;BME280;10913;51.992;9.228;2022-07-22T05:21:43;100667.81;;;19.18;99.08
21504;BME280;10913;51.992;9.228;2022-07-22T05:24:09;100676.78;;;19.17;99.67
21504;BME280;10913;51.992;9.228;2022-07-22T05:26:34;100667.94;;;19.15;99.52
21504;BME280;10913;51.992;9.228;2022-07-22T05:28:59;100668.84;;;19.14;98.24
21504;BME280;10913;51.992;9.228;2022-07-22T05:31:25;100676.19;;;19.09;98.91
21504;BME280;10913;51.992;9.228;2022-07-22T05:33:50;100672.63;;;19.08;99.09
21504;BME280;10913;51.992;9.228;2022-07-22T05:36:16;100670.00;;;19.07;99.43
21504;BME280;10913;51.992;9.228;2022-07-22T05:38:42;100671.75;;;19.08;98.72
21504;BME280;10913;51.992;9.228;2022-07-22T05:41:07;100677.00;;;19.11;98.72
21504;BME280;10913;51.992;9.228;2022-07-22T05:43:33;100676.06;;;19.12;98.77
21504;BME280;10913;51.992;9.228;2022-07-22T05:45:58;100680.50;;;19.13;98.49
21504;BME280;10913;51.992;9.228;2022-07-22T05:48:24;100675.97;;;19.15;98.13
21504;BME280;10913;51.992;9.228;2022-07-22T05:50:49;100673.19;;;19.18;97.83
21504;BME280;10913;51.992;9.228;2022-07-22T05:53:15;100675.78;;;19.19;98.07
21504;BME280;10913;51.992;9.228;2022-07-22T05:55:40;100676.66;;;19.20;98.33
21504;BME280;10913;51.992;9.228;2022-07-22T05:58:05;100692.72;;;19.20;97.99
21504;BME280;10913;51.992;9.228;2022-07-22T06:00:31;100683.91;;;19.18;99.14
21504;BME280;10913;51.992;9.228;2022-07-22T06:02:56;100690.19;;;19.17;98.96
21504;BME280;10913;51.992;9.228;2022-07-22T06:05:22;100685.75;;;19.16;98.71
21504;BME280;10913;51.992;9.228;2022-07-22T06:07:47;100689.38;;;19.15;98.92
21504;BME280;10913;51.992;9.228;2022-07-22T06:10:13;100687.59;;;19.14;98.64
21504;BME280;10913;51.992;9.228;2022-07-22T06:12:41;100692.97;;;19.14;99.09
21504;BME280;10913;51.992;9.228;2022-07-22T06:15:07;100688.50;;;19.14;99.33
21504;BME280;10913;51.992;9.228;2022-07-22T06:17:32;100686.63;;;19.16;99.25
21504;BME280;10913;51.992;9.228;2022-07-22T06:19:58;100690.03;;;19.20;99.15
21504;BME280;10913;51.992;9.228;2022-07-22T06:22:24;100696.19;;;19.23;98.70
21504;BME280;10913;51.992;9.228;2022-07-22T06:24:49;100692.50;;;19.26;98.59
21504;BME280;10913;51.992;9.228;2022-07-22T06:27:14;100696.88;;;19.28;98.67
21504;BME280;10913;51.992;9.228;2022-07-22T06:29:40;100698.63;;;19.30;98.84
21504;BME280;10913;51.992;9.228;2022-07-22T06:32:06;100707.59;;;19.28;98.74
21504;BME280;10913;51.992;9.228;2022-07-22T06:34:32;100696.03;;;19.28;98.96
21504;BME280;10913;51.992;9.228;2022-07-22T06:36:57;100712.09;;;19.28;98.71
21504;BME280;10913;51.992;9.228;2022-07-22T06:39:22;100710.34;;;19.27;98.23
21504;BME280;10913;51.992;9.228;2022-07-22T06:41:48;100704.06;;;19.28;98.32
21504;BME280;10913;51.992;9.228;2022-07-22T06:44:13;100712.09;;;19.28;98.40
21504;BME280;10913;51.992;9.228;2022-07-22T06:46:39;100712.97;;;19.28;98.51
21504;BME280;10913;51.992;9.228;2022-07-22T06:49:04;100713.91;;;19.27;99.02
21504;BME280;10913;51.992;9.228;2022-07-22T06:51:30;100715.75;;;19.25;98.87
21504;BME280;10913;51.992;9.228;2022-07-22T06:53:56;100717.59;;;19.23;98.75
21504;BME280;10913;51.992;9.228;2022-07-22T06:56:21;100712.31;;;19.22;98.07
21504;BME280;10913;51.992;9.228;2022-07-22T06:58:47;100718.47;;;19.24;98.39
21504;BME280;10913;51.992;9.228;2022-07-22T07:01:12;100710.44;;;19.24;98.13
21504;BME280;10913;51.992;9.228;2022-07-22T07:03:37;100706.84;;;19.25;99.03
21504;BME280;10913;51.992;9.228;2022-07-22T07:06:05;100706.84;;;19.25;98.48
21504;BME280;10913;51.992;9.228;2022-07-22T07:08:31;100695.03;;;19.31;98.22
21504;BME280;10913;51.992;9.228;2022-07-22T07:10:56;100695.75;;;19.36;98.16
21504;BME280;10913;51.992;9.228;2022-07-22T07:13:22;100697.25;;;19.43;99.44
21504;BME280;10913;51.992;9.228;2022-07-22T07:15:47;100702.44;;;19.47;98.37
21504;BME280;10913;51.992;9.228;2022-07-22T07:18:16;100703.19;;;19.52;97.34
21504;BME280;10913;51.992;9.228;2022-07-22T07:21:05;100701.34;;;19.54;96.85
21504;BME280;10913;51.992;9.228;2022-07-22T07:23:30;100709.38;;;19.54;96.88
21504;BME280;10913;51.992;9.228;2022-07-22T07:25:56;100705.88;;;19.52;96.82
21504;BME280;10913;51.992;9.228;2022-07-22T07:28:21;100701.56;;;19.47;96.74
21504;BME280;10913;51.992;9.228;2022-07-22T07:30:47;100709.66;;;19.45;96.63
21504;BME280;10913;51.992;9.228;2022-07-22T07:33:13;100697.19;;;19.44;96.60
21504;BME280;10913;51.992;9.228;2022-07-22T07:35:38;100695.44;;;19.43;96.83
21504;BME280;10913;51.992;9.228;2022-07-22T07:38:04;100706.16;;;19.43;96.95
21504;BME280;10913;51.992;9.228;2022-07-22T07:40:29;100701.63;;;19.45;97.40
21504;BME280;10913;51.992;9.228;2022-07-22T07:42:55;100697.00;;;19.50;97.35
21504;BME280;10913;51.992;9.228;2022-07-22T07:45:20;100705.78;;;19.55;97.36
21504;BME280;10913;51.992;9.228;2022-07-22T07:47:46;100700.16;;;19.61;97.23
21504;BME280;10913;51.992;9.228;2022-07-22T07:50:12;100700.88;;;19.67;96.63
21504;BME280;10913;51.992;9.228;2022-07-22T07:52:39;100702.56;;;19.69;96.51
21504;BME280;10913;51.992;9.228;2022-07-22T07:55:06;100699.88;;;19.69;96.33
21504;BME280;10913;51.992;9.228;2022-07-22T07:57:32;100703.44;;;19.70;96.14
21504;BME280;10913;51.992;9.228;2022-07-22T07:59:57;100699.00;;;19.69;96.49
21504;BME280;10913;51.992;9.228;2022-07-22T08:02:23;100699.94;;;19.68;96.44
21504;BME280;10913;51.992;9.228;2022-07-22T08:04:48;100698.19;;;19.67;96.52
21504;BME280;10913;51.992;9.228;2022-07-22T08:07:13;100702.72;;;19.65;96.60
21504;BME280;10913;51.992;9.228;2022-07-22T08:09:39;100700.06;;;19.65;96.32
21504;BME280;10913;51.992;9.228;2022-07-22T08:12:05;100701.78;;;19.66;96.37
21504;BME280;10913;51.992;9.228;2022-07-22T08:14:30;100702.72;;;19.65;96.55
21504;BME280;10913;51.992;9.228;2022-07-22T08:16:56;100696.53;;;19.63;96.17
21504;BME280;10913;51.992;9.228;2022-07-22T08:19:21;100705.53;;;19.61;96.54
21504;BME280;10913;51.992;9.228;2022-07-22T08:21:47;100698.41;;;19.60;96.76
21504;BME280;10913;51.992;9.228;2022-07-22T08:24:12;100695.66;;;19.62;96.66
21504;BME280;10913;51.992;9.228;2022-07-22T08:26:38;100697.38;;;19.65;96.94
21504;BME280;10913;51.992;9.228;2022-07-22T08:29:04;100693.66;;;19.69;96.34
21504;BME280;10913;51.992;9.228;2022-07-22T08:31:30;100693.16;;;19.81;95.92
21504;BME280;10913;51.992;9.228;2022-07-22T08:34:00;100692.66;;;19.94;95.08
21504;BME280;10913;51.992;9.228;2022-07-22T08:36:25;100693.78;;;20.11;94.45
21504;BME280;10913;51.992;9.228;2022-07-22T08:38:51;100697.78;;;20.22;93.62
21504;BME280;10913;51.992;9.228;2022-07-22T08:41:17;100700.22;;;20.28;93.21
21504;BME280;10913;51.992;9.228;2022-07-22T08:43:43;100697.44;;;20.32;92.97
21504;BME280;10913;51.992;9.228;2022-07-22T08:46:12;100700.16;;;20.30;93.67
21504;BME280;10913;51.992;9.228;2022-07-22T08:48:38;100697.56;;;20.28;94.20
21504;BME280;10913;51.992;9.228;2022-07-22T08:51:05;100701.88;;;20.33;94.45
21504;BME280;10913;51.992;9.228;2022-07-22T08:53:31;100693.56;;;20.39;93.02
21504;BME280;10913;51.992;9.228;2022-07-22T08:55:56;100698.56;;;20.48;92.23
21504;BME280;10913;51.992;9.228;2022-07-22T08:58:24;100700.09;;;20.55;91.78
21504;BME280;10913;51.992;9.228;2022-07-22T09:01:07;100695.38;;;20.60;91.30
21504;BME280;10913;51.992;9.228;2022-07-22T09:03:33;100696.06;;;20.65;90.93
21504;BME280;10913;51.992;9.228;2022-07-22T09:05:58;100700.38;;;20.69;90.81
21504;BME280;10913;51.992;9.228;2022-07-22T09:08:24;100699.44;;;20.70;90.73
21504;BME280;10913;51.992;9.228;2022-07-22T09:10:50;100702.94;;;20.72;90.81
21504;BME280;10913;51.992;9.228;2022-07-22T09:13:16;100701.31;;;20.68;90.61
21504;BME280;10913;51.992;9.228;2022-07-22T09:15:52;100703.88;;;20.71;90.36
21504;BME280;10913;51.992;9.228;2022-07-22T09:18:19;100706.31;;;20.77;90.11
21504;BME280;10913;51.992;9.228;2022-07-22T09:20:44;100704.91;;;20.89;89.47
21504;BME280;10913;51.992;9.228;2022-07-22T09:23:12;100694.22;;;21.08;88.67
21504;BME280;10913;51.992;9.228;2022-07-22T09:25:39;100692.75;;;21.41;87.57
21504;BME280;10913;51.992;9.228;2022-07-22T09:30:30;100688.19;;;22.20;83.40
21504;BME280;10913;51.992;9.228;2022-07-22T09:32:56;100688.81;;;22.44;82.76
21504;BME280;10913;51.992;9.228;2022-07-22T09:35:22;100689.78;;;22.60;83.13
21504;BME280;10913;51.992;9.228;2022-07-22T09:37:52;100690.00;;;22.74;84.28
21504;BME280;10913;51.992;9.228;2022-07-22T09:40:27;100692.72;;;22.91;81.06
21504;BME280;10913;51.992;9.228;2022-07-22T09:42:57;100687.97;;;23.14;81.21
21504;BME280;10913;51.992;9.228;2022-07-22T09:45:25;100688.03;;;23.29;81.30
21504;BME280;10913;51.992;9.228;2022-07-22T09:47:54;100695.09;;;23.32;80.54
21504;BME280;10913;51.992;9.228;2022-07-22T09:50:25;100701.28;;;23.34;80.03
21504;BME280;10913;51.992;9.228;2022-07-22T09:52:52;100698.25;;;23.23;79.48
21504;BME280;10913;51.992;9.228;2022-07-22T09:55:20;100703.34;;;23.12;80.65
21504;BME280;10913;51.992;9.228;2022-07-22T09:57:46;100708.91;;;22.91;81.20
21504;BME280;10913;51.992;9.228;2022-07-22T10:00:13;100713.59;;;22.69;81.75
21504;BME280;10913;51.992;9.228;2022-07-22T10:02:46;100707.22;;;22.53;82.12
21504;BME280;10913;51.992;9.228;2022-07-22T10:05:12;100706.69;;;22.27;83.04
21504;BME280;10913;51.992;9.228;2022-07-22T10:07:40;100707.69;;;22.06;84.05
21504;BME280;10913;51.992;9.228;2022-07-22T10:10:07;100701.13;;;21.93;84.28
21504;BME280;10913;51.992;9.228;2022-07-22T10:12:36;100703.38;;;21.83;84.89
21504;BME280;10913;51.992;9.228;2022-07-22T10:15:01;100695.69;;;21.76;85.11
21504;BME280;10913;51.992;9.228;2022-07-22T10:17:27;100708.38;;;21.72;85.06
21504;BME280;10913;51.992;9.228;2022-07-22T10:19:53;100705.91;;;21.67;85.19
21504;BME280;10913;51.992;9.228;2022-07-22T10:25:13;100705.28;;;21.61;86.13
21504;BME280;10913;51.992;9.228;2022-07-22T10:27:46;100706.16;;;21.61;86.25
21504;BME280;10913;51.992;9.228;2022-07-22T10:30:13;100703.63;;;21.58;86.43
21504;BME280;10913;51.992;9.228;2022-07-22T10:32:39;100697.47;;;21.56;86.47
21504;BME280;10913;51.992;9.228;2022-07-22T10:47:59;100699.63;;;21.48;86.15
21504;BME280;10913;51.992;9.228;2022-07-22T10:53:08;100697.13;;;21.44;86.42
21504;BME280;10913;51.992;9.228;2022-07-22T10:55:35;100702.50;;;21.44;86.19
21504;BME280;10913;51.992;9.228;2022-07-22T11:01:08;100693.31;;;21.49;87.03
21504;BME280;10913;51.992;9.228;2022-07-22T11:03:35;100699.47;;;21.51;86.97
21504;BME280;10913;51.992;9.228;2022-07-22T11:08:53;100697.47;;;21.56;86.80
21504;BME280;10913;51.992;9.228;2022-07-22T11:11:50;100696.53;;;21.57;87.03
21504;BME280;10913;51.992;9.228;2022-07-22T11:14:34;100692.97;;;21.57;85.79
21504;BME280;10913;51.992;9.228;2022-07-22T11:17:04;100700.00;;;21.59;86.53
21504;BME280;10913;51.992;9.228;2022-07-22T11:19:31;100694.41;;;21.64;86.35
21504;BME280;10913;51.992;9.228;2022-07-22T11:22:06;100694.28;;;21.67;86.37
21504;BME280;10913;51.992;9.228;2022-07-22T11:24:33;100682.38;;;21.73;86.47
21504;BME280;10913;51.992;9.228;2022-07-22T11:26:59;100685.53;;;21.81;86.21
21504;BME280;10913;51.992;9.228;2022-07-22T11:29:38;100684.31;;;21.88;85.79
21504;BME280;10913;51.992;9.228;2022-07-22T11:32:11;100683.03;;;21.96;85.11
21504;BME280;10913;51.992;9.228;2022-07-22T11:34:41;100682.97;;;21.98;84.15
21504;BME280;10913;51.992;9.228;2022-07-22T11:37:22;100679.19;;;22.02;83.98
21504;BME280;10913;51.992;9.228;2022-07-22T11:39:49;100684.69;;;21.99;84.40
21504;BME280;10913;51.992;9.228;2022-07-22T11:42:15;100681.28;;;21.95;83.77
21504;BME280;10913;51.992;9.228;2022-07-22T11:44:41;100681.34;;;21.94;83.85
21504;BME280;10913;51.992;9.228;2022-07-22T11:47:07;100687.69;;;21.93;84.00
21504;BME280;10913;51.992;9.228;2022-07-22T11:49:35;100695.75;;;21.93;83.78
21504;BME280;10913;51.992;9.228;2022-07-22T11:52:06;100690.31;;;21.94;83.94
21504;BME280;10913;51.992;9.228;2022-07-22T11:54:34;100686.59;;;21.97;84.01
21504;BME280;10913;51.992;9.228;2022-07-22T11:56:59;100684.56;;;22.02;85.28
21504;BME280;10913;51.992;9.228;2022-07-22T11:59:26;100683.16;;;21.93;84.68
21504;BME280;10913;51.992;9.228;2022-07-22T12:01:51;100681.50;;;21.91;84.94
21504;BME280;10913;51.992;9.228;2022-07-22T12:04:23;100678.75;;;21.92;85.41
21504;BME280;10913;51.992;9.228;2022-07-22T12:06:49;100677.88;;;21.92;85.14
21504;BME280;10913;51.992;9.228;2022-07-22T12:11:45;100668.03;;;21.91;85.40
21504;BME280;10913;51.992;9.228;2022-07-22T12:16:43;100669.66;;;21.95;85.03
21504;BME280;10913;51.992;9.228;2022-07-22T12:19:11;100665.84;;;21.99;84.91
21504;BME280;10913;51.992;9.228;2022-07-22T12:24:16;100658.25;;;22.09;84.94
21504;BME280;10913;51.992;9.228;2022-07-22T12:26:49;100658.97;;;22.12;84.75
21504;BME280;10913;51.992;9.228;2022-07-22T12:29:25;100656.94;;;22.17;83.60
21504;BME280;10913;51.992;9.228;2022-07-22T12:31:56;100659.38;;;22.22;82.87
21504;BME280;10913;51.992;9.228;2022-07-22T12:37:13;100653.34;;;22.36;83.13
21504;BME280;10913;51.992;9.228;2022-07-22T12:39:40;100658.88;;;22.32;82.95
21504;BME280;10913;51.992;9.228;2022-07-22T12:42:17;100662.72;;;22.27;82.93
21504;BME280;10913;51.992;9.228;2022-07-22T12:45:15;100670.22;;;22.20;83.06
21504;BME280;10913;51.992;9.228;2022-07-22T12:47:55;100667.13;;;22.11;83.58
21504;BME280;10913;51.992;9.228;2022-07-22T12:52:52;100669.72;;;21.93;83.11
21504;BME280;10913;51.992;9.228;2022-07-22T12:55:18;100670.88;;;21.88;83.29
21504;BME280;10913;51.992;9.228;2022-07-22T12:57:43;100673.84;;;21.82;83.45
21504;BME280;10913;51.992;9.228;2022-07-22T13:00:09;100677.56;;;21.79;84.01
21504;BME280;10913;51.992;9.228;2022-07-22T13:02:36;100672.34;;;21.76;84.09
21504;BME280;10913;51.992;9.228;2022-07-22T13:05:02;100670.72;;;21.72;83.85
21504;BME280;10913;51.992;9.228;2022-07-22T13:07:27;100672.63;;;21.70;83.62
21504;BME280;10913;51.992;9.228;2022-07-22T13:09:53;100657.50;;;21.67;83.98
21504;BME280;10913;51.992;9.228;2022-07-22T13:12:18;100660.25;;;21.66;84.11
21504;BME280;10913;51.992;9.228;2022-07-22T13:14:43;100657.75;;;21.61;84.32
21504;BME280;10913;51.992;9.228;2022-07-22T13:17:09;100657.91;;;21.58;84.41
21504;BME280;10913;51.992;9.228;2022-07-22T13:19:34;100648.13;;;21.57;84.32
21504;BME280;10913;51.992;9.228;2022-07-22T13:22:00;100654.28;;;21.59;84.70